Time;durP1;ratioP1;P1;durP2;ratioP2;P2;SDS_P1;SDS_P2;PMS_P1;PMS_P2;Temp;Humidity;BMP_temperature;BMP_pressure;BME280_temperature;BME280_humidity;BME280_pressure;Samples;Min_cycle;Max_cycle;Signal;HPM_P1;HPM_P2
2023/10/20 00:00:22;;;;;;;0.73;0.65;;;;;;;10.52;100.00;98858.03;5087060;28;20035;-67
2023/10/20 00:02:47;;;;;;;0.50;0.50;;;;;;;10.55;100.00;98859.91;5105313;28;20117;-67
2023/10/20 00:05:14;;;;;;;0.47;0.47;;;;;;;10.46;100.00;98850.78;5068503;28;20449;-70
2023/10/20 00:07:40;;;;;;;0.63;0.47;;;;;;;10.31;100.00;98850.16;5104279;28;20062;-67
2023/10/20 00:10:09;;;;;;;0.93;0.65;;;;;;;10.10;100.00;98849.56;5088698;28;20059;-67
2023/10/20 00:12:35;;;;;;;0.57;0.50;;;;;;;10.48;100.00;98854.63;5111169;28;20028;-69
2023/10/20 00:15:06;;;;;;;1.15;0.70;;;;;;;10.37;100.00;98848.56;5110732;28;20566;-66
2023/10/20 00:17:31;;;;;;;0.90;0.82;;;;;;;10.15;100.00;98849.88;5110915;28;20407;-67
2023/10/20 00:19:57;;;;;;;0.80;0.70;;;;;;;10.04;100.00;98843.81;5110735;28;20031;-67
2023/10/20 00:22:22;;;;;;;0.50;0.50;;;;;;;10.01;100.00;98839.97;5111101;28;20151;-67
2023/10/20 00:24:48;;;;;;;0.68;0.55;;;;;;;9.93;100.00;98835.03;5091523;28;20036;-68
2023/10/20 00:27:13;;;;;;;0.63;0.63;;;;;;;10.23;100.00;98835.22;5091283;28;20077;-67
2023/10/20 00:29:40;;;;;;;0.75;0.68;;;;;;;10.29;100.00;98830.94;5092240;28;20161;-67
2023/10/20 00:32:07;;;;;;;1.05;0.63;;;;;;;10.34;100.00;98832.44;5080831;28;20023;-69
2023/10/20 00:34:32;;;;;;;0.60;0.60;;;;;;;10.16;100.00;98840.66;5074688;28;20089;-68
2023/10/20 00:36:57;;;;;;;0.40;0.40;;;;;;;10.11;100.00;98838.38;5110806;28;20071;-69
2023/10/20 00:39:23;;;;;;;0.75;0.65;;;;;;;10.03;100.00;98839.56;5092601;28;20111;-66
2023/10/20 00:41:49;;;;;;;5.22;0.80;;;;;;;10.12;100.00;98831.88;5071626;28;20071;-68
2023/10/20 00:44:14;;;;;;;1.05;0.77;;;;;;;10.13;100.00;98838.75;5092018;28;20032;-68
2023/10/20 00:46:43;;;;;;;0.85;0.57;;;;;;;10.08;100.00;98831.09;5110135;28;20410;-66
2023/10/20 00:49:10;;;;;;;1.05;0.90;;;;;;;9.95;100.00;98808.50;5091953;28;20039;-67
2023/10/20 00:51:36;;;;;;;0.90;0.80;;;;;;;9.86;100.00;98800.13;5072557;28;20012;-66
2023/10/20 00:54:02;;;;;;;0.80;0.80;;;;;;;10.03;100.00;98793.84;5110777;28;20047;-67
2023/10/20 00:56:29;;;;;;;1.45;0.73;;;;;;;10.02;100.00;98801.19;5089714;28;20389;-66
2023/10/20 00:58:55;;;;;;;0.93;0.75;;;;;;;10.06;100.00;98795.75;5092678;28;20031;-70
2023/10/20 01:01:20;;;;;;;0.98;0.77;;;;;;;10.02;100.00;98805.78;5092321;28;20043;-69
2023/10/20 01:03:46;;;;;;;0.68;0.60;;;;;;;10.00;100.00;98810.78;5075849;28;20046;-68
2023/10/20 01:06:11;;;;;;;1.00;0.77;;;;;;;10.01;100.00;98813.09;5110432;28;20023;-68
2023/10/20 01:08:37;;;;;;;1.33;0.73;;;;;;;9.89;100.00;98802.78;5092108;28;20023;-67
2023/10/20 01:11:03;;;;;;;1.70;0.98;;;;;;;9.68;100.00;98829.03;5075509;28;20114;-67
2023/10/20 01:13:28;;;;;;;1.27;1.00;;;;;;;9.79;100.00;98819.00;5110831;28;20442;-66
2023/10/20 01:15:54;;;;;;;1.00;0.90;;;;;;;9.80;100.00;98832.06;5107119;28;20035;-66
2023/10/20 01:18:19;;;;;;;0.77;0.70;;;;;;;10.09;100.00;98837.22;5107620;28;20040;-67
2023/10/20 01:20:46;;;;;;;1.10;1.00;;;;;;;10.00;100.00;98830.38;5069399;28;20026;-67
2023/10/20 01:23:12;;;;;;;1.08;0.95;;;;;;;10.18;100.00;98842.97;5089712;28;20515;-69
2023/10/20 01:25:37;;;;;;;1.48;1.38;;;;;;;10.36;100.00;98846.25;5104651;28;20043;-67
2023/10/20 01:28:03;;;;;;;1.05;0.85;;;;;;;10.32;99.47;98834.75;5078458;28;20081;-66
2023/10/20 01:30:29;;;;;;;1.38;1.08;;;;;;;10.10;99.60;98839.56;5091496;28;20020;-68
2023/10/20 01:32:55;;;;;;;1.02;0.90;;;;;;;10.18;100.00;98838.31;5103107;28;20056;-68
2023/10/20 01:35:20;;;;;;;2.60;1.88;;;;;;;10.27;100.00;98835.97;5090165;28;20027;-68
2023/10/20 01:37:46;;;;;;;1.73;1.10;;;;;;;9.99;100.00;98817.31;5091156;28;20098;-67
2023/10/20 01:40:12;;;;;;;1.15;0.88;;;;;;;9.76;100.00;98819.78;5090747;28;20061;-67
2023/10/20 01:42:38;;;;;;;1.75;0.70;;;;;;;9.84;100.00;98810.50;5110723;28;20024;-69
2023/10/20 01:45:05;;;;;;;1.15;1.05;;;;;;;9.68;100.00;98811.00;5112976;28;20027;-69
2023/10/20 01:47:31;;;;;;;1.90;1.20;;;;;;;9.54;100.00;98797.66;5113266;28;20044;-67
2023/10/20 01:49:56;;;;;;;1.15;1.05;;;;;;;9.58;100.00;98797.66;5093439;28;20160;-70
2023/10/20 01:52:22;;;;;;;1.38;1.08;;;;;;;9.84;100.00;98799.75;5094810;28;20110;-72
2023/10/20 01:54:47;;;;;;;1.42;1.20;;;;;;;9.63;100.00;98781.88;5110305;28;20044;-67
2023/10/20 01:57:13;;;;;;;1.40;1.08;;;;;;;9.67;100.00;98781.84;5095487;28;20039;-68
2023/10/20 01:59:38;;;;;;;1.77;1.30;;;;;;;9.69;100.00;98785.66;5095129;28;20019;-67
2023/10/20 02:02:04;;;;;;;1.40;1.05;;;;;;;9.46;100.00;98787.34;5078123;28;20073;-69
2023/10/20 02:04:30;;;;;;;2.08;1.23;;;;;;;9.45;100.00;98793.88;5112297;28;20077;-68
2023/10/20 02:06:57;;;;;;;1.05;0.90;;;;;;;9.44;100.00;98770.88;5093765;28;20035;-66
2023/10/20 02:09:25;;;;;;;1.33;0.90;;;;;;;9.41;100.00;98760.88;5113464;28;20106;-67
2023/10/20 02:11:52;;;;;;;1.17;1.05;;;;;;;9.64;100.00;98769.22;5113075;28;20038;-67
2023/10/20 02:14:18;;;;;;;1.48;1.10;;;;;;;9.79;100.00;98776.00;5095247;28;20079;-67
2023/10/20 02:16:43;;;;;;;1.83;1.10;;;;;;;9.84;100.00;98768.28;5090183;28;20474;-67
2023/10/20 02:19:10;;;;;;;1.10;0.95;;;;;;;9.82;100.00;98757.16;5094154;28;20104;-66
2023/10/20 02:21:36;;;;;;;2.08;1.17;;;;;;;9.80;100.00;98750.63;5109112;28;20032;-67
2023/10/20 02:24:03;;;;;;;1.70;1.00;;;;;;;9.37;100.00;98760.16;5091770;28;20028;-69
2023/10/20 02:26:28;;;;;;;1.38;1.10;;;;;;;9.54;100.00;98753.91;5094675;28;20023;-69
2023/10/20 02:28:54;;;;;;;2.13;1.02;;;;;;;9.44;100.00;98723.28;5110312;28;20034;-69
2023/10/20 02:31:23;;;;;;;1.50;1.40;;;;;;;9.57;100.00;98734.31;5094374;28;20027;-66
2023/10/20 02:33:48;;;;;;;1.20;0.95;;;;;;;9.58;100.00;98717.78;5075652;28;20110;-67
2023/10/20 02:36:19;;;;;;;1.45;1.02;;;;;;;9.10;100.00;98723.09;5095175;28;20403;-66
2023/10/20 02:38:45;;;;;;;0.80;0.80;;;;;;;9.35;100.00;98722.19;5089957;28;20092;-67
2023/10/20 02:41:11;;;;;;;1.08;0.90;;;;;;;9.49;100.00;98722.84;5092439;28;20106;-68
2023/10/20 02:43:36;;;;;;;0.90;0.75;;;;;;;9.47;100.00;98727.06;5089494;28;20127;-65
2023/10/20 02:46:02;;;;;;;1.13;0.88;;;;;;;9.28;100.00;98709.56;5110035;28;20035;-65
2023/10/20 02:48:31;;;;;;;1.15;0.88;;;;;;;9.38;100.00;98718.72;5093700;28;20045;-68
2023/10/20 02:50:57;;;;;;;1.05;0.93;;;;;;;9.38;100.00;98707.97;5096972;28;20024;-66
2023/10/20 02:53:23;;;;;;;1.48;1.08;;;;;;;9.35;100.00;98703.41;5094092;28;20055;-65
2023/10/20 02:55:51;;;;;;;2.08;1.10;;;;;;;9.10;100.00;98712.34;5093289;28;20098;-66
2023/10/20 02:58:16;;;;;;;1.15;1.05;;;;;;;9.14;100.00;98709.63;5110892;28;20048;-65
2023/10/20 03:00:46;;;;;;;1.13;0.90;;;;;;;9.52;100.00;98715.94;5092854;28;20032;-67
2023/10/20 03:03:13;;;;;;;1.10;0.93;;;;;;;9.40;100.00;98727.91;5112719;28;20088;-68
2023/10/20 03:05:43;;;;;;;1.02;0.80;;;;;;;9.48;100.00;98739.38;5094298;28;20032;-67
2023/10/20 03:08:10;;;;;;;0.90;0.90;;;;;;;9.83;100.00;98739.13;5094687;28;20027;-66
2023/10/20 03:10:36;;;;;;;1.15;0.90;;;;;;;9.35;100.00;98732.94;5111483;28;20122;-65
2023/10/20 03:13:04;;;;;;;2.15;1.13;;;;;;;9.60;100.00;98731.59;5109262;28;20109;-67
2023/10/20 03:15:30;;;;;;;1.15;0.90;;;;;;;9.84;100.00;98713.75;5094108;28;20023;-66
2023/10/20 03:17:55;;;;;;;0.80;0.80;;;;;;;9.42;100.00;98711.38;5077558;28;20449;-65
2023/10/20 03:20:28;;;;;;;1.45;0.95;;;;;;;9.54;100.00;98703.59;5093510;28;20043;-66
2023/10/20 03:22:54;;;;;;;1.08;0.70;;;;;;;9.51;100.00;98706.31;5092288;28;20039;-67
2023/10/20 03:25:20;;;;;;;0.82;0.75;;;;;;;9.57;100.00;98697.47;5093603;28;20054;-65
2023/10/20 03:27:47;;;;;;;1.02;0.77;;;;;;;9.63;100.00;98706.63;5112013;28;20388;-66
2023/10/20 03:30:12;;;;;;;1.00;0.90;;;;;;;9.72;100.00;98715.00;5108820;28;20050;-65
2023/10/20 03:32:38;;;;;;;1.08;1.00;;;;;;;9.61;100.00;98706.25;5093328;28;20043;-66
2023/10/20 03:35:06;;;;;;;0.50;0.50;;;;;;;9.74;100.00;98707.31;5091401;28;20035;-65
2023/10/20 03:37:32;;;;;;;1.75;1.00;;;;;;;9.48;100.00;98715.19;5112251;28;20387;-65
2023/10/20 03:39:58;;;;;;;1.00;0.90;;;;;;;9.63;100.00;98709.31;5090047;28;20035;-67
2023/10/20 03:42:24;;;;;;;1.05;0.98;;;;;;;9.58;100.00;98695.53;5111667;28;20051;-66
2023/10/20 03:44:49;;;;;;;0.77;0.77;;;;;;;9.69;100.00;98683.56;5112190;28;20034;-66
2023/10/20 03:47:16;;;;;;;1.05;0.77;;;;;;;9.37;100.00;98671.53;5076767;28;20540;-65
2023/10/20 03:49:42;;;;;;;0.70;0.70;;;;;;;9.50;100.00;98661.81;5092158;28;20080;-66
2023/10/20 03:52:11;;;;;;;0.93;0.68;;;;;;;9.67;100.00;98666.28;5108861;28;20441;-66
2023/10/20 03:54:38;;;;;;;0.85;0.70;;;;;;;9.50;100.00;98661.81;5110009;28;20036;-65
2023/10/20 03:57:04;;;;;;;4.60;1.00;;;;;;;8.99;100.00;98649.91;5092202;28;20049;-67
2023/10/20 03:59:30;;;;;;;0.70;0.70;;;;;;;9.24;100.00;98665.09;5111019;28;20035;-67
2023/10/20 04:01:56;;;;;;;0.93;0.90;;;;;;;9.43;100.00;98672.59;5110171;28;20023;-66
2023/10/20 04:04:24;;;;;;;0.75;0.75;;;;;;;9.24;100.00;98673.13;5108472;28;20023;-67
2023/10/20 04:06:49;;;;;;;1.63;0.85;;;;;;;9.39;100.00;98679.97;5092331;28;20030;-65
2023/10/20 04:09:18;;;;;;;1.75;1.05;;;;;;;9.30;100.00;98668.88;5107176;28;20020;-65
2023/10/20 04:11:44;;;;;;;1.10;0.98;;;;;;;9.06;100.00;98676.69;5107091;27;20034;-67
2023/10/20 04:14:10;;;;;;;0.70;0.70;;;;;;;9.07;100.00;98672.88;5109096;27;20036;-69
2023/10/20 04:16:41;;;;;;;1.00;0.85;;;;;;;9.10;100.00;98676.69;5110403;28;20020;-66
2023/10/20 04:19:10;;;;;;;1.70;0.88;;;;;;;9.25;100.00;98672.75;5103919;28;20032;-66
2023/10/20 04:21:38;;;;;;;1.75;0.90;;;;;;;9.16;100.00;98663.59;5109741;27;20039;-69
2023/10/20 04:24:07;;;;;;;0.60;0.60;;;;;;;9.26;100.00;98662.75;5111740;27;20391;-65
2023/10/20 04:26:33;;;;;;;0.88;0.70;;;;;;;9.11;100.00;98651.38;5091069;28;20028;-66
2023/10/20 04:56:26;;;;;;;1.25;0.98;;;;;;;9.35;100.00;98594.00;5106103;28;20133;-67
2023/10/20 04:58:58;;;;;;;1.40;1.10;;;;;;;9.09;100.00;98587.34;5079880;28;20498;-66
2023/10/20 05:01:39;;;;;;;1.05;0.95;;;;;;;9.30;100.00;98582.94;5106886;28;20082;-66
2023/10/20 05:04:16;;;;;;;1.52;1.27;;;;;;;9.12;100.00;98579.66;5110666;28;20073;-66
2023/10/20 05:06:45;;;;;;;1.10;1.00;;;;;;;8.95;100.00;98576.69;5110875;28;20051;-66
2023/10/20 05:09:15;;;;;;;1.57;1.20;;;;;;;8.84;100.00;98562.59;5091547;28;20030;-71
2023/10/20 05:11:41;;;;;;;1.63;1.48;;;;;;;8.59;100.00;98562.00;5092793;28;20146;-64
2023/10/20 05:14:07;;;;;;;1.70;1.10;;;;;;;8.63;100.00;98570.75;5092596;28;20031;-66
2023/10/20 05:16:33;;;;;;;1.92;1.10;;;;;;;9.02;100.00;98559.75;5076480;28;20041;-67
2023/10/20 05:19:03;;;;;;;2.60;1.30;;;;;;;8.97;100.00;98544.84;5114075;28;20032;-66
2023/10/20 05:21:29;;;;;;;1.90;1.10;;;;;;;8.95;100.00;98544.50;5096164;28;20023;-65
2023/10/20 05:23:54;;;;;;;1.50;1.10;;;;;;;9.02;100.00;98563.22;5094650;28;20093;-65
2023/10/20 05:26:19;;;;;;;2.15;1.05;;;;;;;9.18;100.00;98568.06;5113639;28;20043;-66
2023/10/20 05:28:48;;;;;;;1.58;1.42;;;;;;;8.75;100.00;98567.63;5095967;28;20036;-68
2023/10/20 05:31:13;;;;;;;1.63;1.23;;;;;;;8.99;100.00;98569.38;5096604;28;20020;-66
2023/10/20 05:33:39;;;;;;;1.23;1.13;;;;;;;9.10;100.00;98577.34;5113443;28;20559;-66
2023/10/20 05:36:05;;;;;;;2.22;1.27;;;;;;;9.13;100.00;98575.78;5096038;28;20031;-66
2023/10/20 05:38:31;;;;;;;1.30;1.02;;;;;;;9.18;100.00;98580.72;5096140;28;20051;-66
2023/10/20 05:41:00;;;;;;;1.00;0.90;;;;;;;9.26;100.00;98574.16;5112719;28;20039;-70
2023/10/20 05:43:26;;;;;;;0.63;0.63;;;;;;;9.10;100.00;98569.28;5107615;28;20084;-68
2023/10/20 05:45:52;;;;;;;1.77;0.93;;;;;;;9.29;100.00;98570.69;5092946;28;20031;-69
2023/10/20 05:48:17;;;;;;;1.45;1.00;;;;;;;9.08;100.00;98577.75;5113538;28;20031;-66
2023/10/20 05:50:42;;;;;;;0.90;0.82;;;;;;;9.12;100.00;98579.66;5113964;28;20061;-66
2023/10/20 05:53:08;;;;;;;2.22;1.13;;;;;;;9.44;100.00;98596.25;5112363;28;20100;-66
2023/10/20 05:55:34;;;;;;;1.17;0.95;;;;;;;9.07;100.00;98581.59;5095157;28;20043;-66
2023/10/20 05:58:00;;;;;;;1.20;1.00;;;;;;;8.93;100.00;98581.69;5114031;28;20035;-65
2023/10/20 06:00:25;;;;;;;1.55;1.30;;;;;;;8.74;100.00;98579.53;5095460;28;20096;-66
2023/10/20 06:02:51;;;;;;;0.95;0.95;;;;;;;9.14;100.00;98585.38;5095336;28;20123;-65
2023/10/20 06:05:16;;;;;;;1.08;0.98;;;;;;;9.07;100.00;98584.28;5114229;28;20403;-67
2023/10/20 06:07:45;;;;;;;1.27;1.10;;;;;;;8.90;100.00;98573.69;5095315;28;20043;-67
2023/10/20 06:10:13;;;;;;;1.35;1.02;;;;;;;8.97;100.00;98569.00;5112201;28;20031;-67
2023/10/20 06:12:39;;;;;;;0.80;0.70;;;;;;;9.03;100.00;98562.06;5113425;28;20050;-66
2023/10/20 06:15:08;;;;;;;1.75;1.15;;;;;;;9.07;100.00;98565.50;5113959;28;20032;-67
2023/10/20 06:17:34;;;;;;;1.15;1.00;;;;;;;9.20;100.00;98568.44;5113354;28;20051;-66
2023/10/20 06:20:05;;;;;;;1.88;1.25;;;;;;;8.89;100.00;98564.09;5113635;28;20119;-66
2023/10/20 06:22:31;;;;;;;1.02;0.98;;;;;;;9.05;100.00;98567.81;5094285;28;20043;-66
2023/10/20 06:24:58;;;;;;;1.73;1.10;;;;;;;8.99;100.00;98571.28;5114020;28;20506;-70
2023/10/20 06:27:23;;;;;;;1.02;0.93;;;;;;;8.80;100.00;98577.97;5093409;28;20031;-67
2023/10/20 06:29:56;;;;;;;1.60;0.98;;;;;;;8.71;100.00;98596.41;5112313;28;20031;-67
2023/10/20 06:34:48;;;;;;;1.52;1.08;;;;;;;8.60;100.00;98573.47;5094998;28;20031;-67
2023/10/20 06:37:22;;;;;;;1.15;1.10;;;;;;;8.75;100.00;98567.63;5095118;28;20039;-66
2023/10/20 06:39:48;;;;;;;1.90;1.05;;;;;;;8.76;100.00;98565.72;5113481;28;20031;-67
2023/10/20 06:42:13;;;;;;;0.88;0.77;;;;;;;8.94;100.00;98561.00;5113257;28;20022;-70
2023/10/20 06:44:39;;;;;;;1.00;0.82;;;;;;;8.93;100.00;98559.44;5094635;28;20488;-67
2023/10/20 06:47:04;;;;;;;1.42;1.00;;;;;;;8.91;100.00;98556.41;5094744;28;20036;-67
2023/10/20 06:49:32;;;;;;;1.40;0.88;;;;;;;9.22;100.00;98544.63;5094141;28;20043;-68
2023/10/20 06:52:00;;;;;;;1.50;0.90;;;;;;;9.04;100.00;98544.03;5113182;28;20552;-67
2023/10/20 06:54:26;;;;;;;2.30;1.13;;;;;;;8.94;100.00;98521.47;5093363;28;20039;-70
2023/10/20 06:56:51;;;;;;;1.13;0.90;;;;;;;8.99;100.00;98510.31;5094675;28;20043;-67
2023/10/20 06:59:17;;;;;;;1.73;1.20;;;;;;;8.80;100.00;98528.88;5112648;28;20039;-67
2023/10/20 07:01:43;;;;;;;1.33;1.00;;;;;;;8.94;100.00;98518.78;5094486;28;20091;-71
2023/10/20 07:04:08;;;;;;;2.30;1.20;;;;;;;9.14;100.00;98515.59;5109165;28;20024;-68
2023/10/20 07:06:37;;;;;;;2.15;1.27;;;;;;;9.25;100.00;98513.56;5112754;28;20165;-67
2023/10/20 07:09:11;;;;;;;2.78;1.10;;;;;;;9.31;100.00;98520.75;5094370;28;20031;-67
2023/10/20 07:11:41;;;;;;;3.15;1.33;;;;;;;8.84;100.00;98505.47;5108795;28;20561;-68
2023/10/20 07:14:07;;;;;;;1.67;1.10;;;;;;;8.97;100.00;98496.53;5112547;28;20027;-69
2023/10/20 07:16:36;;;;;;;1.50;1.05;;;;;;;8.81;100.00;98503.56;5094197;28;20023;-67
2023/10/20 07:19:03;;;;;;;2.00;1.10;;;;;;;8.69;100.00;98496.75;5112289;28;20032;-68
2023/10/20 07:21:29;;;;;;;3.08;1.40;;;;;;;8.99;100.00;98498.81;5112233;28;20036;-67
2023/10/20 07:23:55;;;;;;;1.48;1.10;;;;;;;8.82;100.00;98489.78;5107699;28;20047;-67
2023/10/20 07:26:21;;;;;;;1.25;1.15;;;;;;;8.58;100.00;98498.75;5111758;28;20072;-67
2023/10/20 07:28:47;;;;;;;1.27;1.08;;;;;;;8.87;100.00;98496.63;5111018;28;20118;-70
2023/10/20 07:31:14;;;;;;;2.13;1.25;;;;;;;9.22;100.00;98487.47;5092702;28;20112;-67
2023/10/20 07:33:42;;;;;;;1.17;1.00;;;;;;;9.21;100.00;98494.03;5112215;28;20484;-67
2023/10/20 07:36:10;;;;;;;1.60;1.33;;;;;;;9.38;99.24;98488.47;5111922;28;20024;-67
2023/10/20 07:38:36;;;;;;;1.63;1.15;;;;;;;9.07;99.79;98500.28;5111613;28;20404;-69
2023/10/20 07:41:10;;;;;;;1.92;1.13;;;;;;;8.79;100.00;98482.50;5111448;28;20069;-66
2023/10/20 07:43:36;;;;;;;1.83;1.38;;;;;;;9.05;100.00;98479.22;5112125;28;20546;-68
2023/10/20 07:46:02;;;;;;;3.63;1.63;;;;;;;9.21;100.00;98483.28;5109128;28;20107;-67
2023/10/20 07:48:28;;;;;;;3.00;1.50;;;;;;;8.85;100.00;98467.50;5077065;28;20031;-67
2023/10/20 07:50:55;;;;;;;2.47;1.70;;;;;;;8.93;100.00;98485.06;5111653;28;20035;-67
2023/10/20 07:53:21;;;;;;;2.47;1.60;;;;;;;8.85;100.00;98470.19;5111094;28;20076;-67
2023/10/20 07:55:46;;;;;;;2.33;1.50;;;;;;;8.85;100.00;98461.38;5091887;28;20499;-69
2023/10/20 07:58:12;;;;;;;1.40;1.30;;;;;;;8.63;100.00;98460.03;5092888;28;20594;-65
2023/10/20 08:00:37;;;;;;;3.38;1.75;;;;;;;8.73;100.00;98473.34;5089480;28;20039;-66
2023/10/20 08:03:03;;;;;;;2.72;1.50;;;;;;;8.91;100.00;98470.50;5103773;28;20038;-67
2023/10/20 08:05:29;;;;;;;1.60;1.45;;;;;;;9.03;100.00;98478.84;5105001;28;20022;-67
2023/10/20 08:08:01;;;;;;;5.15;1.98;;;;;;;9.04;100.00;98471.53;5111889;28;20027;-67
2023/10/20 08:10:27;;;;;;;2.28;1.88;;;;;;;9.07;100.00;98463.47;5089018;28;20046;-66
2023/10/20 08:12:53;;;;;;;2.03;1.58;;;;;;;9.01;100.00;98453.56;5111557;28;20102;-66
2023/10/20 08:15:19;;;;;;;2.78;1.50;;;;;;;8.50;100.00;98450.91;5111105;28;20123;-73
2023/10/20 08:17:46;;;;;;;3.60;1.63;;;;;;;8.85;100.00;98456.00;5093355;28;20131;-66
2023/10/20 08:20:12;;;;;;;1.92;1.60;;;;;;;8.79;100.00;98436.88;5110785;28;20114;-67
2023/10/20 08:22:38;;;;;;;2.78;1.48;;;;;;;8.82;100.00;98449.53;5076267;28;20035;-67
2023/10/20 08:25:04;;;;;;;3.88;1.63;;;;;;;8.64;100.00;98462.31;5109519;28;20027;-68
2023/10/20 08:27:30;;;;;;;3.75;1.92;;;;;;;8.85;100.00;98461.38;5092207;28;20036;-67
2023/10/20 08:29:58;;;;;;;2.85;1.77;;;;;;;8.69;100.00;98455.78;5111135;28;20034;-68
2023/10/20 08:32:27;;;;;;;2.22;1.50;;;;;;;8.75;100.00;98462.97;5108560;28;20039;-68
2023/10/20 08:34:53;;;;;;;2.50;1.88;;;;;;;8.84;100.00;98470.59;5109163;28;20023;-67
2023/10/20 08:37:18;;;;;;;3.08;1.90;;;;;;;8.69;100.00;98461.88;5092896;28;20039;-68
2023/10/20 08:39:44;;;;;;;3.78;2.08;;;;;;;8.56;100.00;98468.88;5108669;28;20058;-67
2023/10/20 08:42:17;;;;;;;6.38;2.17;;;;;;;8.85;100.00;98467.50;5093227;28;20036;-67
2023/10/20 08:44:43;;;;;;;3.88;2.08;;;;;;;8.59;100.00;98454.69;5075702;28;20055;-67
2023/10/20 08:47:17;;;;;;;3.30;2.30;;;;;;;8.43;100.00;98457.09;5110954;28;20059;-67
2023/10/20 08:49:43;;;;;;;4.78;2.67;;;;;;;8.35;100.00;98430.72;5110652;28;20035;-68
2023/10/20 08:52:11;;;;;;;3.13;2.22;;;;;;;8.29;100.00;98437.66;5111662;28;20032;-68
2023/10/20 08:54:37;;;;;;;4.00;2.22;;;;;;;8.38;100.00;98430.69;5113386;28;20055;-69
2023/10/20 08:57:06;;;;;;;4.55;2.50;;;;;;;8.62;100.00;98421.72;5114535;28;20506;-69
2023/10/20 08:59:32;;;;;;;4.22;2.88;;;;;;;8.55;100.00;98443.22;5096684;28;20319;-67
2023/10/20 09:02:00;;;;;;;4.22;2.58;;;;;;;8.58;100.00;98436.28;5112287;28;20055;-65
2023/10/20 09:04:27;;;;;;;4.90;2.78;;;;;;;8.47;100.00;98427.56;5112360;27;20039;-66
2023/10/20 09:06:53;;;;;;;5.80;2.35;;;;;;;8.42;100.00;98415.34;5112990;27;20038;-68
2023/10/20 09:09:19;;;;;;;5.45;3.10;;;;;;;8.15;100.00;98411.69;5113556;27;20039;-70
2023/10/20 09:11:46;;;;;;;3.15;2.15;;;;;;;8.10;100.00;98404.84;5111602;27;20550;-67
2023/10/20 09:14:12;;;;;;;3.50;2.05;;;;;;;8.30;100.00;98391.72;5109024;27;20047;-68
2023/10/20 09:16:38;;;;;;;3.40;2.35;;;;;;;8.44;100.00;98388.16;5115706;27;20046;-68
2023/10/20 09:19:04;;;;;;;3.95;2.08;;;;;;;8.40;100.00;98372.06;5099401;27;20035;-67
2023/10/20 09:21:29;;;;;;;4.45;2.47;;;;;;;8.47;100.00;98385.44;5095745;27;20511;-68
2023/10/20 09:24:04;;;;;;;3.05;2.05;;;;;;;8.55;100.00;98380.78;5109782;27;20036;-66
2023/10/20 09:26:37;;;;;;;3.00;1.88;;;;;;;8.34;100.00;98378.28;5089854;27;20038;-69
2023/10/20 09:29:07;;;;;;;2.53;1.83;;;;;;;8.38;100.00;98371.72;5091336;27;20032;-66
2023/10/20 09:31:34;;;;;;;3.25;2.03;;;;;;;8.28;100.00;98359.16;5096877;28;20036;-65
2023/10/20 09:33:59;;;;;;;2.63;2.05;;;;;;;8.63;100.00;98376.88;5097074;28;20495;-66
2023/10/20 09:36:28;;;;;;;3.80;2.25;;;;;;;8.44;100.00;98378.16;5111181;27;20047;-66
2023/10/20 09:38:55;;;;;;;3.30;1.85;;;;;;;8.65;100.00;98367.25;5113899;28;20028;-69
2023/10/20 09:41:23;;;;;;;4.38;2.10;;;;;;;8.63;100.00;98380.28;5113610;28;20030;-67
2023/10/20 09:44:03;;;;;;;2.77;2.00;;;;;;;8.51;100.00;98388.84;5112199;28;20032;-66
2023/10/20 09:46:46;;;;;;;5.20;1.92;;;;;;;8.67;100.00;98372.25;5092071;28;20035;-66
2023/10/20 09:49:19;;;;;;;2.30;1.58;;;;;;;8.54;100.00;98376.56;5080951;28;20035;-72
2023/10/20 09:51:48;;;;;;;2.13;1.65;;;;;;;8.38;100.00;98379.75;5113294;28;20039;-66
2023/10/20 09:54:15;;;;;;;1.60;1.50;;;;;;;8.20;100.00;98379.88;5110573;28;20039;-66
2023/10/20 09:56:42;;;;;;;2.38;1.38;;;;;;;8.32;100.00;98381.34;5088525;28;20023;-66
2023/10/20 09:59:12;;;;;;;3.60;1.95;;;;;;;8.24;100.00;98393.25;5110611;28;20034;-66
2023/10/20 10:01:38;;;;;;;4.65;1.58;;;;;;;8.34;100.00;98376.38;5093923;28;20032;-66
2023/10/20 10:04:04;;;;;;;2.75;1.85;;;;;;;8.47;100.00;98390.81;5097408;28;20082;-72
2023/10/20 10:06:37;;;;;;;3.22;1.65;;;;;;;8.45;100.00;98374.34;5112555;28;20047;-67
2023/10/20 10:09:05;;;;;;;2.10;1.80;;;;;;;8.32;100.00;98383.28;5111391;28;20046;-68
2023/10/20 10:11:39;;;;;;;5.55;1.80;;;;;;;8.43;100.00;98386.63;5096812;28;20023;-67
2023/10/20 10:14:05;;;;;;;1.88;1.45;;;;;;;8.50;100.00;98386.53;5112474;28;20043;-69
2023/10/20 10:16:31;;;;;;;2.22;1.67;;;;;;;8.54;100.00;98396.09;5112324;28;20031;-67
2023/10/20 10:19:09;;;;;;;2.70;1.42;;;;;;;8.55;100.00;98400.31;5110438;28;20020;-67
2023/10/20 10:21:42;;;;;;;2.95;1.83;;;;;;;8.58;100.00;98383.41;5109135;27;20106;-68
2023/10/20 10:24:16;;;;;;;2.38;1.40;;;;;;;8.33;100.00;98387.47;5089422;27;20070;-67
2023/10/20 10:26:46;;;;;;;1.35;1.20;;;;;;;8.22;100.00;98387.53;5107478;27;20075;-70
2023/10/20 10:29:12;;;;;;;1.63;1.52;;;;;;;8.46;100.00;98389.25;5116582;27;20033;-68
2023/10/20 10:31:38;;;;;;;2.92;1.85;;;;;;;8.31;100.00;98385.19;5108477;27;20027;-68
2023/10/20 10:34:04;;;;;;;2.08;1.30;;;;;;;8.66;100.00;98392.94;5111694;27;20479;-69
2023/10/20 10:36:47;;;;;;;1.27;1.00;;;;;;;8.72;100.00;98394.03;5095442;27;20054;-69
2023/10/20 10:39:29;;;;;;;1.55;1.45;;;;;;;8.43;100.00;98384.69;5092506;28;20035;-69
2023/10/20 10:42:04;;;;;;;1.30;1.15;;;;;;;8.32;100.00;98394.75;5108832;27;20043;-68
2023/10/20 10:44:36;;;;;;;1.90;1.30;;;;;;;8.75;100.00;98390.53;5112393;28;20039;-68
2023/10/20 10:47:06;;;;;;;1.73;1.25;;;;;;;8.70;100.00;98390.97;5112598;28;20073;-67
2023/10/20 10:49:32;;;;;;;2.10;1.80;;;;;;;8.51;100.00;98401.50;5111791;28;20148;-67
2023/10/20 10:52:04;;;;;;;1.95;1.35;;;;;;;8.44;100.00;98394.25;5110853;28;20022;-67
2023/10/20 10:54:33;;;;;;;;;;;;;;;8.36;100.00;98381.31;5095468;28;20035;-68
2023/10/20 10:57:00;;;;;;;1.23;0.98;;;;;;;8.76;100.00;98377.88;5093119;28;20425;-68
2023/10/20 10:59:27;;;;;;;2.97;1.90;;;;;;;8.95;100.00;98391.50;5094872;27;20023;-68
2023/10/20 11:01:53;;;;;;;1.40;1.15;;;;;;;8.79;100.00;98369.78;5091641;28;20122;-69
2023/10/20 11:04:18;;;;;;;2.03;1.50;;;;;;;8.64;100.00;98375.69;5110330;28;20118;-67
2023/10/20 11:06:44;;;;;;;1.20;1.05;;;;;;;8.74;100.00;98378.28;5107188;28;20122;-68
2023/10/20 11:09:10;;;;;;;2.97;1.70;;;;;;;8.44;100.00;98380.84;5112107;28;20031;-68
2023/10/20 11:11:42;;;;;;;1.90;1.30;;;;;;;8.43;100.00;98382.03;5093543;28;20073;-69
2023/10/20 11:14:09;;;;;;;2.22;1.30;;;;;;;8.70;100.00;98374.88;5109187;28;20110;-67
2023/10/20 11:16:38;;;;;;;2.33;1.50;;;;;;;8.48;100.00;98378.16;5112315;28;20106;-68
2023/10/20 11:19:04;;;;;;;4.47;1.35;;;;;;;8.65;100.00;98369.19;5093806;28;20059;-67
2023/10/20 11:21:43;;;;;;;1.15;1.05;;;;;;;8.53;100.00;98367.00;5115185;27;20074;-67
2023/10/20 11:24:09;;;;;;;1.25;1.02;;;;;;;8.47;100.00;98371.25;5090652;28;20059;-67
2023/10/20 11:26:35;;;;;;;2.03;1.40;;;;;;;8.69;100.00;98378.72;5088070;28;21460;-69
2023/10/20 11:29:07;;;;;;;1.58;1.20;;;;;;;8.29;100.00;98376.00;5107420;27;20039;-69
2023/10/20 11:31:34;;;;;;;1.95;1.17;;;;;;;8.31;100.00;98377.13;5108288;27;20130;-68
2023/10/20 11:34:00;;;;;;;2.28;1.20;;;;;;;8.35;100.00;98367.16;5095901;28;20116;-67
2023/10/20 11:36:26;;;;;;;1.73;1.48;;;;;;;8.54;100.00;98369.28;5109844;28;20103;-67
2023/10/20 11:38:51;;;;;;;1.52;1.13;;;;;;;8.83;100.00;98375.91;5112045;28;20536;-67
2023/10/20 11:41:17;;;;;;;1.35;0.88;;;;;;;8.81;100.00;98366.72;5092709;28;20662;-67
2023/10/20 11:43:42;;;;;;;1.45;1.10;;;;;;;8.80;100.00;98367.88;5111964;28;20115;-66
2023/10/20 11:46:11;;;;;;;1.95;1.25;;;;;;;8.86;100.00;98371.66;5110577;27;20104;-66
2023/10/20 11:48:36;;;;;;;1.40;1.00;;;;;;;9.00;100.00;98369.56;5111910;27;20040;-66
2023/10/20 11:51:05;;;;;;;1.98;1.33;;;;;;;8.65;100.00;98371.88;5110853;28;20110;-66
2023/10/20 11:53:31;;;;;;;1.10;1.00;;;;;;;8.64;100.00;98365.75;5110316;28;20027;-69
2023/10/20 11:55:56;;;;;;;1.38;1.20;;;;;;;8.62;100.00;98370.75;5105137;28;20028;-65
2023/10/20 11:58:25;;;;;;;1.52;1.30;;;;;;;8.54;100.00;98353.19;5092757;28;20053;-67
2023/10/20 12:00:51;;;;;;;2.33;1.23;;;;;;;8.87;100.00;98357.06;5088520;28;20040;-66